Waco, Texas
Current Conditions -  °F | °C
As of 3:51 PM on Thursday 27 Nov 2014 (Local Time) from KACT Reporting Station
Clear Clear  
Wind Chill: 59°   Ceiling: Unl
Heat Index: 59°   Visibility: 10mi
Dew Point: 24°   Wind: 3mph
Humidity: 26%   Direction: 270°W
Pressure: 30.42"   Gusts: NA
Location:  31.57°N, 97.15°W
Report Text: KACT 272151Z 27003KT 10SM CLR 15/M04 A3042 RMK AO2 SLP302 T01501044
Loading
Personal Weather Stations






























Interactive Weather Map New forecast layout! Learn more

10-Day Weather Forecast

Advertisements
Track Severe Weather on mobile